sensor_id;sensor_type;location;lat;lon;timestamp;temperature;humidity
9901;DHT22;4989;48.772;9.154;2023-10-31T00:01:48;12.90;99.90
9901;DHT22;4989;48.772;9.154;2023-10-31T00:06:51;12.60;99.90
9901;DHT22;4989;48.772;9.154;2023-10-31T00:11:53;12.40;99.90
9901;DHT22;4989;48.772;9.154;2023-10-31T00:16:55;12.60;99.90
9901;DHT22;4989;48.772;9.154;2023-10-31T00:21:57;12.40;99.90
9901;DHT22;4989;48.772;9.154;2023-10-31T00:26:59;12.50;99.90
9901;DHT22;4989;48.772;9.154;2023-10-31T00:32:02;12.60;99.90
9901;DHT22;4989;48.772;9.154;2023-10-31T00:37:08;12.90;99.90
9901;DHT22;4989;48.772;9.154;2023-10-31T00:42:10;13.00;99.90
9901;DHT22;4989;48.772;9.154;2023-10-31T00:47:12;12.90;99.90
9901;DHT22;4989;48.772;9.154;2023-10-31T00:52:15;13.00;99.90
9901;DHT22;4989;48.772;9.154;2023-10-31T00:57:17;13.00;99.90
9901;DHT22;4989;48.772;9.154;2023-10-31T01:02:19;13.00;99.90
9901;DHT22;4989;48.772;9.154;2023-10-31T01:07:23;12.70;99.90
9901;DHT22;4989;48.772;9.154;2023-10-31T01:12:25;12.80;99.90
9901;DHT22;4989;48.772;9.154;2023-10-31T01:17:29;12.90;99.90
9901;DHT22;4989;48.772;9.154;2023-10-31T01:22:32;13.00;99.90
9901;DHT22;4989;48.772;9.154;2023-10-31T01:27:34;13.00;99.90
9901;DHT22;4989;48.772;9.154;2023-10-31T01:32:36;12.70;99.90
9901;DHT22;4989;48.772;9.154;2023-10-31T01:37:39;12.70;99.90
9901;DHT22;4989;48.772;9.154;2023-10-31T01:42:41;12.60;99.90
9901;DHT22;4989;48.772;9.154;2023-10-31T01:47:45;12.30;99.90
9901;DHT22;4989;48.772;9.154;2023-10-31T01:52:52;12.30;99.90
9901;DHT22;4989;48.772;9.154;2023-10-31T01:57:54;12.20;99.90
9901;DHT22;4989;48.772;9.154;2023-10-31T02:02:57;12.20;99.90
9901;DHT22;4989;48.772;9.154;2023-10-31T02:08:01;12.20;99.90
9901;DHT22;4989;48.772;9.154;2023-10-31T02:13:14;12.10;99.90
9901;DHT22;4989;48.772;9.154;2023-10-31T02:18:17;12.00;99.90
9901;DHT22;4989;48.772;9.154;2023-10-31T02:23:20;11.80;99.90
9901;DHT22;4989;48.772;9.154;2023-10-31T02:28:22;11.80;99.90
9901;DHT22;4989;48.772;9.154;2023-10-31T02:33:24;11.90;99.90
9901;DHT22;4989;48.772;9.154;2023-10-31T02:38:26;11.90;99.90
9901;DHT22;4989;48.772;9.154;2023-10-31T02:43:28;11.90;99.90
9901;DHT22;4989;48.772;9.154;2023-10-31T02:48:31;12.30;99.90
9901;DHT22;4989;48.772;9.154;2023-10-31T02:53:41;12.50;99.90
9901;DHT22;4989;48.772;9.154;2023-10-31T02:58:43;12.30;99.90
9901;DHT22;4989;48.772;9.154;2023-10-31T03:03:45;12.10;99.90
9901;DHT22;4989;48.772;9.154;2023-10-31T03:08:48;12.00;99.90
9901;DHT22;4989;48.772;9.154;2023-10-31T03:13:50;12.20;99.90
9901;DHT22;4989;48.772;9.154;2023-10-31T03:18:53;12.20;99.90
9901;DHT22;4989;48.772;9.154;2023-10-31T03:23:55;12.10;99.90
9901;DHT22;4989;48.772;9.154;2023-10-31T03:28:57;12.10;99.90
9901;DHT22;4989;48.772;9.154;2023-10-31T03:34:00;12.00;99.90
9901;DHT22;4989;48.772;9.154;2023-10-31T03:39:02;11.90;99.90
9901;DHT22;4989;48.772;9.154;2023-10-31T03:44:04;11.80;99.90
9901;DHT22;4989;48.772;9.154;2023-10-31T03:49:07;11.80;99.90
9901;DHT22;4989;48.772;9.154;2023-10-31T03:54:09;11.80;99.90
9901;DHT22;4989;48.772;9.154;2023-10-31T03:59:11;12.30;99.90
9901;DHT22;4989;48.772;9.154;2023-10-31T04:04:13;12.70;99.90
9901;DHT22;4989;48.772;9.154;2023-10-31T04:09:15;12.50;99.90
9901;DHT22;4989;48.772;9.154;2023-10-31T04:14:18;12.20;99.90
9901;DHT22;4989;48.772;9.154;2023-10-31T04:19:20;12.20;99.90
9901;DHT22;4989;48.772;9.154;2023-10-31T04:24:22;12.00;99.90
9901;DHT22;4989;48.772;9.154;2023-10-31T04:29:24;11.90;99.90
9901;DHT22;4989;48.772;9.154;2023-10-31T04:34:26;12.10;99.90
9901;DHT22;4989;48.772;9.154;2023-10-31T04:39:28;11.80;99.90
9901;DHT22;4989;48.772;9.154;2023-10-31T04:44:30;11.80;99.90
9901;DHT22;4989;48.772;9.154;2023-10-31T04:49:35;11.80;99.90
9901;DHT22;4989;48.772;9.154;2023-10-31T04:54:37;11.80;99.90
9901;DHT22;4989;48.772;9.154;2023-10-31T04:59:39;11.70;99.90
9901;DHT22;4989;48.772;9.154;2023-10-31T05:04:42;11.70;99.90
9901;DHT22;4989;48.772;9.154;2023-10-31T05:09:44;12.00;99.90
9901;DHT22;4989;48.772;9.154;2023-10-31T05:14:48;11.90;99.90
9901;DHT22;4989;48.772;9.154;2023-10-31T05:19:50;11.70;99.90
9901;DHT22;4989;48.772;9.154;2023-10-31T05:24:53;11.80;99.90
9901;DHT22;4989;48.772;9.154;2023-10-31T05:29:55;11.70;99.90
9901;DHT22;4989;48.772;9.154;2023-10-31T05:34:58;11.60;99.90
9901;DHT22;4989;48.772;9.154;2023-10-31T05:40:01;11.50;99.90
9901;DHT22;4989;48.772;9.154;2023-10-31T05:45:04;11.60;99.90
9901;DHT22;4989;48.772;9.154;2023-10-31T05:50:07;11.80;99.90
9901;DHT22;4989;48.772;9.154;2023-10-31T05:55:10;11.60;99.90
9901;DHT22;4989;48.772;9.154;2023-10-31T06:00:12;11.40;99.90
9901;DHT22;4989;48.772;9.154;2023-10-31T06:05:15;11.50;99.90
9901;DHT22;4989;48.772;9.154;2023-10-31T06:10:17;11.40;99.90
9901;DHT22;4989;48.772;9.154;2023-10-31T06:15:19;11.40;99.90
9901;DHT22;4989;48.772;9.154;2023-10-31T06:20:22;11.00;99.90
9901;DHT22;4989;48.772;9.154;2023-10-31T06:25:25;11.10;99.90
9901;DHT22;4989;48.772;9.154;2023-10-31T06:30:27;11.30;99.90
9901;DHT22;4989;48.772;9.154;2023-10-31T06:35:30;11.20;99.90
9901;DHT22;4989;48.772;9.154;2023-10-31T06:40:32;11.10;99.90
9901;DHT22;4989;48.772;9.154;2023-10-31T06:45:34;11.10;99.90
9901;DHT22;4989;48.772;9.154;2023-10-31T06:50:37;11.10;99.90
9901;DHT22;4989;48.772;9.154;2023-10-31T06:55:39;11.10;99.90
9901;DHT22;4989;48.772;9.154;2023-10-31T07:00:41;11.40;99.90
9901;DHT22;4989;48.772;9.154;2023-10-31T07:05:43;11.20;99.90
9901;DHT22;4989;48.772;9.154;2023-10-31T07:10:45;11.10;99.90
9901;DHT22;4989;48.772;9.154;2023-10-31T07:15:47;11.00;99.90
9901;DHT22;4989;48.772;9.154;2023-10-31T07:20:50;10.90;99.90
9901;DHT22;4989;48.772;9.154;2023-10-31T07:25:52;10.90;99.90
9901;DHT22;4989;48.772;9.154;2023-10-31T07:30:54;11.00;99.90
9901;DHT22;4989;48.772;9.154;2023-10-31T07:35:56;11.10;99.90
9901;DHT22;4989;48.772;9.154;2023-10-31T07:40:58;11.20;99.90
9901;DHT22;4989;48.772;9.154;2023-10-31T07:46:01;11.30;99.90
9901;DHT22;4989;48.772;9.154;2023-10-31T07:51:03;11.20;99.90
9901;DHT22;4989;48.772;9.154;2023-10-31T07:56:15;11.40;99.90
9901;DHT22;4989;48.772;9.154;2023-10-31T08:01:18;11.40;99.90
9901;DHT22;4989;48.772;9.154;2023-10-31T08:06:21;11.60;99.90
9901;DHT22;4989;48.772;9.154;2023-10-31T08:11:23;11.60;99.90
9901;DHT22;4989;48.772;9.154;2023-10-31T08:16:25;11.70;99.90
9901;DHT22;4989;48.772;9.154;2023-10-31T08:21:27;11.90;99.90
9901;DHT22;4989;48.772;9.154;2023-10-31T08:26:35;12.00;99.90
9901;DHT22;4989;48.772;9.154;2023-10-31T08:31:37;11.90;99.90
9901;DHT22;4989;48.772;9.154;2023-10-31T08:36:39;11.90;99.90
9901;DHT22;4989;48.772;9.154;2023-10-31T08:46:56;12.50;99.90
9901;DHT22;4989;48.772;9.154;2023-10-31T08:51:59;12.40;99.90
9901;DHT22;4989;48.772;9.154;2023-10-31T08:57:04;12.40;99.90
9901;DHT22;4989;48.772;9.154;2023-10-31T09:02:06;12.10;99.90
9901;DHT22;4989;48.772;9.154;2023-10-31T09:07:09;12.30;99.90
9901;DHT22;4989;48.772;9.154;2023-10-31T09:12:11;12.60;99.90
9901;DHT22;4989;48.772;9.154;2023-10-31T09:17:13;12.50;99.90
9901;DHT22;4989;48.772;9.154;2023-10-31T09:22:16;12.90;99.90
9901;DHT22;4989;48.772;9.154;2023-10-31T09:27:18;12.80;99.90
9901;DHT22;4989;48.772;9.154;2023-10-31T09:32:20;12.70;99.90
9901;DHT22;4989;48.772;9.154;2023-10-31T09:37:23;12.80;99.90
9901;DHT22;4989;48.772;9.154;2023-10-31T09:42:25;13.10;99.90
9901;DHT22;4989;48.772;9.154;2023-10-31T09:47:28;13.00;99.90
9901;DHT22;4989;48.772;9.154;2023-10-31T09:52:32;13.40;99.90
9901;DHT22;4989;48.772;9.154;2023-10-31T09:57:35;13.00;99.90
9901;DHT22;4989;48.772;9.154;2023-10-31T10:02:37;13.50;99.90
9901;DHT22;4989;48.772;9.154;2023-10-31T10:07:41;13.60;99.90
9901;DHT22;4989;48.772;9.154;2023-10-31T10:12:45;13.30;99.90
9901;DHT22;4989;48.772;9.154;2023-10-31T10:17:51;13.30;99.90
9901;DHT22;4989;48.772;9.154;2023-10-31T10:22:54;13.20;99.90
9901;DHT22;4989;48.772;9.154;2023-10-31T10:27:57;13.30;99.90
9901;DHT22;4989;48.772;9.154;2023-10-31T10:32:59;13.80;99.90
9901;DHT22;4989;48.772;9.154;2023-10-31T10:38:06;13.60;99.90
9901;DHT22;4989;48.772;9.154;2023-10-31T10:43:26;14.00;99.90
9901;DHT22;4989;48.772;9.154;2023-10-31T10:48:28;14.80;99.90
9901;DHT22;4989;48.772;9.154;2023-10-31T10:53:49;13.80;99.90
9901;DHT22;4989;48.772;9.154;2023-10-31T10:59:07;14.00;99.90
9901;DHT22;4989;48.772;9.154;2023-10-31T11:04:16;13.60;99.90
9901;DHT22;4989;48.772;9.154;2023-10-31T11:09:19;13.80;99.90
9901;DHT22;4989;48.772;9.154;2023-10-31T11:14:22;14.10;99.90
9901;DHT22;4989;48.772;9.154;2023-10-31T11:19:26;14.30;99.90
9901;DHT22;4989;48.772;9.154;2023-10-31T11:24:33;14.30;99.90
9901;DHT22;4989;48.772;9.154;2023-10-31T11:29:38;14.60;99.90
9901;DHT22;4989;48.772;9.154;2023-10-31T11:34:42;14.80;99.90
9901;DHT22;4989;48.772;9.154;2023-10-31T11:50:31;14.20;99.90
9901;DHT22;4989;48.772;9.154;2023-10-31T11:55:36;14.70;99.90
9901;DHT22;4989;48.772;9.154;2023-10-31T12:00:41;15.60;99.90
9901;DHT22;4989;48.772;9.154;2023-10-31T12:05:54;16.10;99.90
9901;DHT22;4989;48.772;9.154;2023-10-31T12:11:09;16.50;99.90
9901;DHT22;4989;48.772;9.154;2023-10-31T12:16:14;16.40;99.40
9901;DHT22;4989;48.772;9.154;2023-10-31T12:21:39;15.90;99.00
9901;DHT22;4989;48.772;9.154;2023-10-31T12:27:20;15.20;98.80
9901;DHT22;4989;48.772;9.154;2023-10-31T12:32:23;14.00;99.90
9901;DHT22;4989;48.772;9.154;2023-10-31T12:37:32;14.00;99.90
9901;DHT22;4989;48.772;9.154;2023-10-31T12:42:46;13.60;99.90
9901;DHT22;4989;48.772;9.154;2023-10-31T12:48:03;13.60;99.90
9901;DHT22;4989;48.772;9.154;2023-10-31T12:53:06;13.60;99.90
9901;DHT22;4989;48.772;9.154;2023-10-31T12:58:09;13.40;99.90
9901;DHT22;4989;48.772;9.154;2023-10-31T13:03:12;13.20;99.90
9901;DHT22;4989;48.772;9.154;2023-10-31T13:08:15;13.10;99.90
9901;DHT22;4989;48.772;9.154;2023-10-31T13:13:18;13.40;99.90
9901;DHT22;4989;48.772;9.154;2023-10-31T13:18:20;13.20;99.90
9901;DHT22;4989;48.772;9.154;2023-10-31T13:23:22;13.40;99.90
9901;DHT22;4989;48.772;9.154;2023-10-31T13:28:24;13.80;99.90
9901;DHT22;4989;48.772;9.154;2023-10-31T13:33:26;13.60;99.90
9901;DHT22;4989;48.772;9.154;2023-10-31T13:38:28;13.70;99.90
9901;DHT22;4989;48.772;9.154;2023-10-31T13:43:31;13.50;99.90
9901;DHT22;4989;48.772;9.154;2023-10-31T13:48:34;13.30;99.90
9901;DHT22;4989;48.772;9.154;2023-10-31T13:53:37;13.40;99.90
9901;DHT22;4989;48.772;9.154;2023-10-31T13:58:40;13.60;99.90
9901;DHT22;4989;48.772;9.154;2023-10-31T14:03:42;13.60;99.90
9901;DHT22;4989;48.772;9.154;2023-10-31T14:08:45;13.70;99.90
9901;DHT22;4989;48.772;9.154;2023-10-31T14:13:48;13.70;99.90
9901;DHT22;4989;48.772;9.154;2023-10-31T14:18:52;13.90;99.90
9901;DHT22;4989;48.772;9.154;2023-10-31T14:23:54;13.90;99.90
9901;DHT22;4989;48.772;9.154;2023-10-31T14:29:09;14.10;99.90
9901;DHT22;4989;48.772;9.154;2023-10-31T14:34:13;14.30;99.90
9901;DHT22;4989;48.772;9.154;2023-10-31T14:39:15;14.40;99.90
9901;DHT22;4989;48.772;9.154;2023-10-31T14:44:17;14.30;99.90
9901;DHT22;4989;48.772;9.154;2023-10-31T14:49:20;14.60;99.90
9901;DHT22;4989;48.772;9.154;2023-10-31T14:54:22;15.00;99.90
9901;DHT22;4989;48.772;9.154;2023-10-31T14:59:26;15.40;99.90
9901;DHT22;4989;48.772;9.154;2023-10-31T15:04:29;15.40;99.90
9901;DHT22;4989;48.772;9.154;2023-10-31T15:09:31;15.00;99.90
9901;DHT22;4989;48.772;9.154;2023-10-31T15:14:33;15.10;99.90
9901;DHT22;4989;48.772;9.154;2023-10-31T15:19:36;14.80;99.90
9901;DHT22;4989;48.772;9.154;2023-10-31T15:25:18;15.10;99.90
9901;DHT22;4989;48.772;9.154;2023-10-31T15:36:38;14.70;99.90
9901;DHT22;4989;48.772;9.154;2023-10-31T15:41:40;14.50;99.90
9901;DHT22;4989;48.772;9.154;2023-10-31T15:46:43;14.10;99.90
9901;DHT22;4989;48.772;9.154;2023-10-31T15:51:45;13.70;99.90
9901;DHT22;4989;48.772;9.154;2023-10-31T15:56:47;13.40;99.90
9901;DHT22;4989;48.772;9.154;2023-10-31T16:01:49;13.30;99.90
9901;DHT22;4989;48.772;9.154;2023-10-31T16:06:52;13.20;99.90
9901;DHT22;4989;48.772;9.154;2023-10-31T16:11:54;13.10;99.90
9901;DHT22;4989;48.772;9.154;2023-10-31T16:16:57;13.10;99.90
9901;DHT22;4989;48.772;9.154;2023-10-31T16:21:59;13.10;99.90
9901;DHT22;4989;48.772;9.154;2023-10-31T16:27:04;13.10;99.90
9901;DHT22;4989;48.772;9.154;2023-10-31T16:32:06;13.00;99.90
9901;DHT22;4989;48.772;9.154;2023-10-31T16:37:10;13.10;99.90
9901;DHT22;4989;48.772;9.154;2023-10-31T16:42:12;13.00;99.90
9901;DHT22;4989;48.772;9.154;2023-10-31T16:47:16;12.90;99.90
9901;DHT22;4989;48.772;9.154;2023-10-31T16:52:18;12.80;99.90
9901;DHT22;4989;48.772;9.154;2023-10-31T16:57:20;12.80;99.90
9901;DHT22;4989;48.772;9.154;2023-10-31T17:02:22;12.80;99.90
9901;DHT22;4989;48.772;9.154;2023-10-31T17:07:25;12.80;99.90
9901;DHT22;4989;48.772;9.154;2023-10-31T17:12:27;12.60;99.90
9901;DHT22;4989;48.772;9.154;2023-10-31T17:17:29;12.40;99.90
9901;DHT22;4989;48.772;9.154;2023-10-31T17:22:31;12.30;99.90
9901;DHT22;4989;48.772;9.154;2023-10-31T17:27:40;12.30;99.90
9901;DHT22;4989;48.772;9.154;2023-10-31T17:32:42;12.10;99.90
9901;DHT22;4989;48.772;9.154;2023-10-31T17:37:45;12.20;99.90
9901;DHT22;4989;48.772;9.154;2023-10-31T17:42:48;12.00;99.90
9901;DHT22;4989;48.772;9.154;2023-10-31T17:47:50;12.10;99.90
9901;DHT22;4989;48.772;9.154;2023-10-31T17:52:53;12.10;99.90
9901;DHT22;4989;48.772;9.154;2023-10-31T17:57:58;12.00;99.90
9901;DHT22;4989;48.772;9.154;2023-10-31T18:03:00;11.90;99.90
9901;DHT22;4989;48.772;9.154;2023-10-31T18:08:03;12.00;99.90
9901;DHT22;4989;48.772;9.154;2023-10-31T18:13:06;11.90;99.90
9901;DHT22;4989;48.772;9.154;2023-10-31T18:18:08;11.80;99.90
9901;DHT22;4989;48.772;9.154;2023-10-31T18:23:10;11.80;99.90
9901;DHT22;4989;48.772;9.154;2023-10-31T18:28:13;11.90;99.90
9901;DHT22;4989;48.772;9.154;2023-10-31T18:33:15;12.10;99.90
9901;DHT22;4989;48.772;9.154;2023-10-31T18:38:18;12.00;99.90
9901;DHT22;4989;48.772;9.154;2023-10-31T18:43:20;12.10;99.90
9901;DHT22;4989;48.772;9.154;2023-10-31T18:48:22;12.10;99.90
9901;DHT22;4989;48.772;9.154;2023-10-31T18:53:24;12.10;99.90
9901;DHT22;4989;48.772;9.154;2023-10-31T18:58:27;12.10;99.90
9901;DHT22;4989;48.772;9.154;2023-10-31T19:03:29;12.10;99.90
9901;DHT22;4989;48.772;9.154;2023-10-31T19:08:31;12.20;99.90
9901;DHT22;4989;48.772;9.154;2023-10-31T19:13:40;12.20;99.90
9901;DHT22;4989;48.772;9.154;2023-10-31T19:19:11;12.10;99.90
9901;DHT22;4989;48.772;9.154;2023-10-31T19:24:14;12.10;99.90
9901;DHT22;4989;48.772;9.154;2023-10-31T19:29:16;12.10;99.90
9901;DHT22;4989;48.772;9.154;2023-10-31T19:34:18;12.20;99.90
9901;DHT22;4989;48.772;9.154;2023-10-31T19:39:21;12.10;99.90
9901;DHT22;4989;48.772;9.154;2023-10-31T19:44:26;12.10;99.90
9901;DHT22;4989;48.772;9.154;2023-10-31T19:49:29;12.00;99.90
9901;DHT22;4989;48.772;9.154;2023-10-31T19:54:31;12.00;99.90
9901;DHT22;4989;48.772;9.154;2023-10-31T19:59:38;12.10;99.90
9901;DHT22;4989;48.772;9.154;2023-10-31T20:04:41;11.90;99.90
9901;DHT22;4989;48.772;9.154;2023-10-31T20:09:43;11.90;99.90
9901;DHT22;4989;48.772;9.154;2023-10-31T20:14:47;12.10;99.90
9901;DHT22;4989;48.772;9.154;2023-10-31T20:20:04;12.00;99.90
9901;DHT22;4989;48.772;9.154;2023-10-31T20:25:08;11.90;99.90
9901;DHT22;4989;48.772;9.154;2023-10-31T20:30:11;11.90;99.90
9901;DHT22;4989;48.772;9.154;2023-10-31T20:35:14;11.90;99.90
9901;DHT22;4989;48.772;9.154;2023-10-31T20:40:16;12.10;99.90
9901;DHT22;4989;48.772;9.154;2023-10-31T20:45:18;11.90;99.90
9901;DHT22;4989;48.772;9.154;2023-10-31T20:50:21;12.00;99.90
9901;DHT22;4989;48.772;9.154;2023-10-31T20:55:24;12.00;99.90
9901;DHT22;4989;48.772;9.154;2023-10-31T21:00:26;11.90;99.90
9901;DHT22;4989;48.772;9.154;2023-10-31T21:05:32;11.90;99.90
9901;DHT22;4989;48.772;9.154;2023-10-31T21:10:35;11.90;99.90
9901;DHT22;4989;48.772;9.154;2023-10-31T21:15:37;11.70;99.90
9901;DHT22;4989;48.772;9.154;2023-10-31T21:20:40;11.90;99.90
9901;DHT22;4989;48.772;9.154;2023-10-31T21:25:42;11.90;99.90
9901;DHT22;4989;48.772;9.154;2023-10-31T21:30:45;12.00;99.90
9901;DHT22;4989;48.772;9.154;2023-10-31T21:35:48;11.90;99.90
9901;DHT22;4989;48.772;9.154;2023-10-31T21:40:50;11.70;99.90
9901;DHT22;4989;48.772;9.154;2023-10-31T21:45:53;11.80;99.90
9901;DHT22;4989;48.772;9.154;2023-10-31T21:50:55;11.70;99.90
9901;DHT22;4989;48.772;9.154;2023-10-31T21:56:00;11.80;99.90
9901;DHT22;4989;48.772;9.154;2023-10-31T22:01:02;11.60;99.90
9901;DHT22;4989;48.772;9.154;2023-10-31T22:06:05;11.50;99.90
9901;DHT22;4989;48.772;9.154;2023-10-31T22:11:07;11.30;99.90
9901;DHT22;4989;48.772;9.154;2023-10-31T22:16:10;11.20;99.90
9901;DHT22;4989;48.772;9.154;2023-10-31T22:21:13;11.50;99.90
9901;DHT22;4989;48.772;9.154;2023-10-31T22:26:15;11.10;99.90
9901;DHT22;4989;48.772;9.154;2023-10-31T22:31:17;11.20;99.90
9901;DHT22;4989;48.772;9.154;2023-10-31T22:36:19;11.10;99.90
9901;DHT22;4989;48.772;9.154;2023-10-31T22:41:21;11.10;99.90
9901;DHT22;4989;48.772;9.154;2023-10-31T22:46:23;11.00;99.90
9901;DHT22;4989;48.772;9.154;2023-10-31T22:51:25;11.00;99.90
9901;DHT22;4989;48.772;9.154;2023-10-31T22:56:28;11.00;99.90
9901;DHT22;4989;48.772;9.154;2023-10-31T23:01:32;11.00;99.90
9901;DHT22;4989;48.772;9.154;2023-10-31T23:06:35;11.00;99.90
9901;DHT22;4989;48.772;9.154;2023-10-31T23:11:38;10.90;99.90
9901;DHT22;4989;48.772;9.154;2023-10-31T23:16:40;11.00;99.90
9901;DHT22;4989;48.772;9.154;2023-10-31T23:21:42;11.10;99.90
9901;DHT22;4989;48.772;9.154;2023-10-31T23:26:44;11.10;99.90
9901;DHT22;4989;48.772;9.154;2023-10-31T23:31:47;10.90;99.90
9901;DHT22;4989;48.772;9.154;2023-10-31T23:36:49;10.80;99.90
9901;DHT22;4989;48.772;9.154;2023-10-31T23:41:52;11.10;99.90
9901;DHT22;4989;48.772;9.154;2023-10-31T23:46:54;10.90;99.90
9901;DHT22;4989;48.772;9.154;2023-10-31T23:51:57;11.00;99.90
9901;DHT22;4989;48.772;9.154;2023-10-31T23:56:59;10.90;99.90
